Time;durP1;ratioP1;P1;durP2;ratioP2;P2;SDS_P1;SDS_P2;PMS_P1;PMS_P2;Temp;Humidity;BMP_temperature;BMP_pressure;BME280_temperature;BME280_humidity;BME280_pressure;Samples;Min_cycle;Max_cycle;Signal;HPM_P1;HPM_P2
2021/04/04 00:00:56;;;;;;;16.85;7.70;;;4.90;79.40;;;;;;5092435;28;20028;-75
2021/04/04 00:03:22;;;;;;;9.98;6.82;;;5.10;78.60;;;;;;5092412;28;20024;-75
2021/04/04 00:05:47;;;;;;;13.57;8.18;;;5.30;78.20;;;;;;5092326;28;20103;-75
2021/04/04 00:08:13;;;;;;;12.35;7.05;;;5.20;78.20;;;;;;5092218;28;20020;-75
2021/04/04 00:10:39;;;;;;;13.00;7.32;;;5.00;78.60;;;;;;5092255;28;20024;-75
2021/04/04 00:13:05;;;;;;;22.80;7.63;;;4.90;79.40;;;;;;5092271;28;20024;-75
2021/04/04 00:15:31;;;;;;;16.13;7.78;;;4.90;80.00;;;;;;5092175;28;20099;-76
2021/04/04 00:17:56;;;;;;;12.82;7.22;;;5.00;79.50;;;;;;5092181;28;20024;-75
2021/04/04 00:20:22;;;;;;;11.90;7.10;;;5.10;79.40;;;;;;5091995;28;20024;-75
2021/04/04 00:22:48;;;;;;;18.45;8.23;;;5.00;79.60;;;;;;5092083;28;20028;-75
2021/04/04 00:25:16;;;;;;;11.40;6.78;;;5.10;79.30;;;;;;5090878;28;20483;-75
2021/04/04 00:27:42;;;;;;;14.43;6.82;;;5.10;78.60;;;;;;5092135;28;20028;-75
2021/04/04 00:30:17;;;;;;;12.90;8.00;;;5.30;78.70;;;;;;5091974;28;20084;-75
2021/04/04 00:32:43;;;;;;;14.65;7.40;;;5.30;78.10;;;;;;5092080;28;20158;-75
2021/04/04 00:35:16;;;;;;;11.43;6.85;;;5.30;77.70;;;;;;5091003;28;20087;-75
2021/04/04 00:37:43;;;;;;;11.60;6.80;;;5.20;77.60;;;;;;5073928;28;20028;-75
2021/04/04 00:40:15;;;;;;;12.88;7.32;;;5.10;78.70;;;;;;5091832;28;20286;-75
2021/04/04 00:42:41;;;;;;;14.20;6.75;;;5.10;78.10;;;;;;5092013;28;20031;-75
2021/04/04 00:45:13;;;;;;;9.70;6.13;;;5.20;77.80;;;;;;5092288;28;20032;-75
2021/04/04 00:47:39;;;;;;;12.38;6.65;;;5.20;77.80;;;;;;5091838;28;20016;-75
2021/04/04 00:50:07;;;;;;;9.52;5.72;;;5.30;77.20;;;;;;5090562;28;20024;-75
2021/04/04 00:52:33;;;;;;;13.45;7.25;;;5.30;77.00;;;;;;5073761;28;20558;-75
2021/04/04 00:54:59;;;;;;;11.02;7.05;;;5.20;76.70;;;;;;5091895;28;20024;-75
2021/04/04 00:57:25;;;;;;;13.68;6.63;;;5.20;77.20;;;;;;5091798;28;20364;-75
2021/04/04 00:59:51;;;;;;;13.48;6.55;;;5.30;77.40;;;;;;5091764;28;20024;-75
2021/04/04 01:02:18;;;;;;;14.60;6.28;;;5.20;77.40;;;;;;5092866;28;20065;-75
2021/04/04 01:04:46;;;;;;;13.43;6.95;;;5.30;76.80;;;;;;5094628;28;20031;-75
2021/04/04 01:07:11;;;;;;;11.73;6.28;;;5.20;76.80;;;;;;5094542;28;20120;-75
2021/04/04 01:09:37;;;;;;;13.15;6.43;;;5.20;76.70;;;;;;5094365;28;20063;-75
2021/04/04 01:12:13;;;;;;;15.38;7.05;;;5.20;76.60;;;;;;5095706;28;20047;-76
2021/04/04 01:14:49;;;;;;;12.77;6.72;;;5.10;76.30;;;;;;5094505;28;20436;-75
2021/04/04 01:17:20;;;;;;;10.98;6.20;;;5.10;76.60;;;;;;5095656;28;20340;-76
2021/04/04 01:20:06;;;;;;;13.15;6.05;;;4.90;76.90;;;;;;5077205;28;20020;-75
2021/04/04 01:22:57;;;;;;;13.02;6.38;;;4.90;77.20;;;;;;5095495;28;20052;-75
2021/04/04 01:25:38;;;;;;;12.52;6.97;;;4.80;77.40;;;;;;5094041;28;20107;-75
2021/04/04 01:28:09;;;;;;;11.50;6.35;;;4.80;77.50;;;;;;5095307;28;20032;-75
2021/04/04 01:30:38;;;;;;;16.15;6.57;;;4.80;77.80;;;;;;5094020;28;20024;-75
2021/04/04 01:33:05;;;;;;;12.63;5.88;;;4.90;77.50;;;;;;5095288;28;20027;-75
2021/04/04 01:35:35;;;;;;;12.32;6.30;;;4.80;77.50;;;;;;5095157;28;20062;-76
2021/04/04 01:38:10;;;;;;;11.30;5.57;;;4.80;76.60;;;;;;5094026;28;20024;-75
2021/04/04 01:40:37;;;;;;;8.50;5.40;;;4.80;77.10;;;;;;5093896;28;20039;-75
2021/04/04 01:43:05;;;;;;;13.55;6.00;;;4.80;77.00;;;;;;5095430;28;20020;-75
2021/04/04 01:45:31;;;;;;;10.43;6.88;;;4.70;77.50;;;;;;5094955;28;20468;-75
2021/04/04 01:47:59;;;;;;;12.27;6.20;;;4.60;78.20;;;;;;5094878;28;20031;-75
2021/04/04 01:50:26;;;;;;;11.15;6.70;;;4.40;78.90;;;;;;5094799;28;20468;-75
2021/04/04 01:52:53;;;;;;;11.77;6.82;;;4.00;79.50;;;;;;5094872;28;20028;-75
2021/04/04 01:55:19;;;;;;;10.77;6.45;;;3.80;80.50;;;;;;5094811;28;20411;-75
2021/04/04 01:57:46;;;;;;;14.48;7.05;;;3.90;80.60;;;;;;5094782;28;20024;-75
2021/04/04 02:00:15;;;;;;;17.63;6.47;;;3.90;80.00;;;;;;5093256;28;20081;-75
2021/04/04 02:02:46;;;;;;;13.77;6.85;;;3.90;79.70;;;;;;5094774;28;20407;-76
2021/04/04 02:05:14;;;;;;;10.18;6.38;;;3.80;80.50;;;;;;5093540;28;20028;-75
2021/04/04 02:07:42;;;;;;;13.60;6.10;;;3.80;80.40;;;;;;5094543;28;20049;-76
2021/04/04 02:10:14;;;;;;;18.65;7.60;;;3.60;80.90;;;;;;5094407;28;20494;-75
2021/04/04 02:12:41;;;;;;;11.05;6.20;;;3.30;82.10;;;;;;5094385;28;20073;-75
2021/04/04 02:15:12;;;;;;;21.23;6.43;;;3.30;82.10;;;;;;5092678;28;20020;-75
2021/04/04 02:17:40;;;;;;;8.50;5.68;;;3.40;82.30;;;;;;5094503;28;20024;-75
2021/04/04 02:20:15;;;;;;;12.98;5.75;;;3.70;81.80;;;;;;5094311;28;20055;-75
2021/04/04 02:22:42;;;;;;;13.88;6.03;;;3.90;80.20;;;;;;5094213;28;20047;-75
2021/04/04 02:25:10;;;;;;;12.07;6.25;;;3.90;79.30;;;;;;5094055;28;20069;-75
2021/04/04 02:27:37;;;;;;;17.08;6.32;;;3.80;79.70;;;;;;5094160;28;20028;-75
2021/04/04 02:30:07;;;;;;;9.32;5.80;;;3.80;80.40;;;;;;5094111;28;20028;-75
2021/04/04 02:32:36;;;;;;;13.10;6.30;;;3.90;79.70;;;;;;5094090;28;20077;-75
2021/04/04 02:35:05;;;;;;;11.75;6.15;;;3.80;79.30;;;;;;5094105;28;20103;-75
2021/04/04 02:37:32;;;;;;;15.75;6.70;;;3.80;79.70;;;;;;5092685;28;20020;-75
2021/04/04 02:40:03;;;;;;;14.10;6.35;;;3.70;79.20;;;;;;5093867;28;20360;-76
2021/04/04 02:42:31;;;;;;;9.23;6.53;;;3.60;79.70;;;;;;5093943;28;20020;-75
2021/04/04 02:44:59;;;;;;;10.85;5.30;;;3.50;80.00;;;;;;5092584;28;20471;-75
2021/04/04 02:48:05;;;;;;;11.27;6.18;;;3.30;81.20;;;;;;5093869;28;20019;-75
2021/04/04 02:50:32;;;;;;;11.52;5.65;;;3.40;80.40;;;;;;5092970;28;20040;-75
2021/04/04 02:53:00;;;;;;;11.45;6.07;;;3.40;80.80;;;;;;5093711;28;20024;-75
2021/04/04 02:55:29;;;;;;;12.48;7.22;;;3.30;80.30;;;;;;5093682;28;20024;-75
2021/04/04 02:57:56;;;;;;;12.75;6.13;;;2.90;81.30;;;;;;5093581;28;20024;-75
2021/04/04 03:00:23;;;;;;;10.55;6.18;;;2.80;82.70;;;;;;5092057;28;20027;-76
2021/04/04 03:02:51;;;;;;;10.98;6.35;;;2.60;83.30;;;;;;5092275;28;20415;-75
2021/04/04 03:05:20;;;;;;;16.08;7.78;;;2.60;84.00;;;;;;5093438;28;20051;-75
2021/04/04 03:07:47;;;;;;;15.60;6.50;;;2.70;83.50;;;;;;5093773;28;20480;-75
2021/04/04 03:10:13;;;;;;;13.45;6.43;;;2.80;83.30;;;;;;5093226;28;20095;-75
2021/04/04 03:12:40;;;;;;;11.63;6.00;;;2.90;82.30;;;;;;5093330;28;20535;-75
2021/04/04 03:15:12;;;;;;;12.63;6.38;;;2.80;82.80;;;;;;5093269;28;20095;-74
2021/04/04 03:17:38;;;;;;;;;;;3.20;82.50;;;;;;5093740;28;20107;-75
2021/04/04 03:20:07;;;;;;;10.77;5.60;;;3.30;81.10;;;;;;5092232;28;19904;-74
2021/04/04 03:22:35;;;;;;;20.08;6.75;;;3.30;80.90;;;;;;5093114;28;20422;-75
2021/04/04 03:25:02;;;;;;;12.30;6.38;;;3.30;80.60;;;;;;5092367;28;20020;-74
2021/04/04 03:27:29;;;;;;;11.00;6.30;;;3.30;80.80;;;;;;5092419;28;20425;-75
2021/04/04 03:29:55;;;;;;;13.95;5.57;;;3.20;80.40;;;;;;5091546;28;20472;-75
2021/04/04 03:32:21;;;;;;;12.75;6.38;;;3.30;80.20;;;;;;5091752;28;20020;-76
2021/04/04 03:34:48;;;;;;;14.38;6.50;;;3.10;80.30;;;;;;5092941;28;20467;-75
2021/04/04 03:37:14;;;;;;;11.90;5.90;;;3.00;81.20;;;;;;5092845;28;20103;-75
2021/04/04 03:39:40;;;;;;;10.23;5.72;;;3.00;81.00;;;;;;5092643;28;20115;-75
2021/04/04 03:42:07;;;;;;;11.90;6.30;;;2.90;81.10;;;;;;5092839;28;20063;-75
2021/04/04 03:44:38;;;;;;;9.70;6.45;;;2.70;81.20;;;;;;5092717;28;20495;-76
2021/04/04 03:47:04;;;;;;;17.02;6.35;;;2.50;82.00;;;;;;5092953;28;20024;-75
2021/04/04 03:49:30;;;;;;;13.00;6.38;;;2.50;82.60;;;;;;5092585;28;20020;-75
2021/04/04 03:51:58;;;;;;;13.13;6.22;;;2.40;82.70;;;;;;5092488;28;20024;-75
2021/04/04 03:54:26;;;;;;;16.75;6.80;;;2.30;82.50;;;;;;5092541;28;20024;-75
2021/04/04 03:56:54;;;;;;;11.98;6.03;;;2.50;83.40;;;;;;5092500;28;20483;-76
2021/04/04 03:59:22;;;;;;;13.30;6.35;;;2.60;82.00;;;;;;5091251;28;20111;-75
2021/04/04 04:01:49;;;;;;;17.73;6.43;;;2.60;82.80;;;;;;5092446;28;20032;-75
2021/04/04 04:04:16;;;;;;;14.25;6.63;;;2.60;82.30;;;;;;5092483;28;20031;-75
2021/04/04 04:06:46;;;;;;;14.30;6.35;;;2.70;82.10;;;;;;5092149;28;20035;-75
2021/04/04 04:09:15;;;;;;;12.30;6.75;;;2.50;82.50;;;;;;5092202;28;20429;-75
2021/04/04 04:11:43;;;;;;;12.98;6.88;;;2.40;83.20;;;;;;5092249;28;20023;-75
2021/04/04 04:14:14;;;;;;;19.30;6.32;;;2.50;83.20;;;;;;5091202;28;20027;-75
2021/04/04 04:16:41;;;;;;;15.75;6.78;;;2.50;83.30;;;;;;5091086;28;20107;-75
2021/04/04 04:19:08;;;;;;;13.15;6.25;;;2.60;82.90;;;;;;5092032;28;20085;-75
2021/04/04 04:21:36;;;;;;;12.95;6.35;;;2.50;82.60;;;;;;5092139;28;20504;-75
2021/04/04 04:24:04;;;;;;;14.82;7.05;;;2.50;83.10;;;;;;5091873;28;20031;-74
2021/04/04 04:26:32;;;;;;;15.27;6.32;;;2.40;82.70;;;;;;5092063;28;20028;-74
2021/04/04 04:28:59;;;;;;;12.68;6.43;;;2.50;82.60;;;;;;5091954;28;20066;-75
2021/04/04 04:31:30;;;;;;;10.43;5.95;;;2.40;83.10;;;;;;5090835;28;20639;-74
2021/04/04 04:33:57;;;;;;;12.77;7.97;;;2.30;83.40;;;;;;5092120;28;20016;-75
2021/04/04 04:36:24;;;;;;;11.90;6.40;;;2.40;83.60;;;;;;5090850;28;20028;-75
2021/04/04 04:38:51;;;;;;;11.45;6.90;;;2.50;82.90;;;;;;5091604;28;20059;-75
2021/04/04 04:41:19;;;;;;;11.10;6.10;;;2.30;83.10;;;;;;5090820;28;20101;-75
2021/04/04 04:43:51;;;;;;;12.77;6.20;;;2.30;83.70;;;;;;5091917;28;20388;-76
2021/04/04 04:46:17;;;;;;;12.60;6.90;;;2.30;83.80;;;;;;5091880;28;20105;-75
2021/04/04 04:48:44;;;;;;;14.35;6.97;;;2.10;83.30;;;;;;5091694;28;20020;-75
2021/04/04 04:51:11;;;;;;;10.05;5.88;;;2.10;84.60;;;;;;5092095;28;20023;-75
2021/04/04 04:53:38;;;;;;;12.10;6.70;;;2.10;84.50;;;;;;5086965;22;20040;-71
2021/04/04 04:56:04;;;;;;;8.68;5.90;;;2.20;84.50;;;;;;5071573;28;20071;-74
2021/04/04 04:58:31;;;;;;;10.27;6.13;;;2.00;84.30;;;;;;5071544;28;20025;-73
2021/04/04 05:01:00;;;;;;;12.63;5.60;;;2.10;84.90;;;;;;5071568;28;20569;-73
2021/04/04 05:03:26;;;;;;;16.67;6.47;;;2.20;84.60;;;;;;5053630;28;20377;-73
2021/04/04 05:05:52;;;;;;;9.80;5.88;;;2.40;83.30;;;;;;5071427;28;20074;-74
2021/04/04 05:08:20;;;;;;;14.07;6.57;;;2.50;83.70;;;;;;5070709;28;20464;-74
2021/04/04 05:10:47;;;;;;;12.38;6.57;;;2.30;84.00;;;;;;5068407;28;20020;-73
2021/04/04 05:13:13;;;;;;;9.75;6.40;;;2.30;84.20;;;;;;5068596;28;20051;-74
2021/04/04 05:15:41;;;;;;;11.70;6.03;;;2.30;84.20;;;;;;5051417;28;20025;-73
2021/04/04 05:18:07;;;;;;;13.85;6.22;;;2.30;84.20;;;;;;5051364;28;20460;-73
2021/04/04 05:20:34;;;;;;;12.73;5.40;;;2.40;84.10;;;;;;5051304;28;20029;-73
2021/04/04 05:23:01;;;;;;;16.42;6.97;;;2.40;83.50;;;;;;5049696;28;20041;-73
2021/04/04 05:25:28;;;;;;;10.88;5.50;;;2.20;83.70;;;;;;5050000;28;20029;-73
2021/04/04 05:27:57;;;;;;;11.95;6.50;;;2.30;83.30;;;;;;5051616;28;20096;-73
2021/04/04 05:30:25;;;;;;;12.43;5.80;;;2.30;83.70;;;;;;5052128;28;20021;-73
2021/04/04 05:32:52;;;;;;;11.25;6.07;;;2.50;83.50;;;;;;5051282;28;20025;-73
2021/04/04 05:35:20;;;;;;;14.15;6.65;;;2.60;83.30;;;;;;5049829;28;20083;-73
2021/04/04 05:37:46;;;;;;;15.52;7.28;;;2.60;82.60;;;;;;5051140;28;20024;-73
2021/04/04 05:40:16;;;;;;;13.48;5.40;;;2.50;83.40;;;;;;5049685;28;20218;-73
2021/04/04 05:42:52;;;;;;;13.43;6.53;;;2.20;84.30;;;;;;5051191;28;20032;-73
2021/04/04 05:45:44;;;;;;;10.25;6.78;;;2.10;85.30;;;;;;5049772;28;20029;-73
2021/04/04 05:48:40;;;;;;;17.08;6.15;;;2.40;85.00;;;;;;5040130;28;20453;-73
2021/04/04 05:51:39;;;;;;;11.75;6.20;;;2.60;84.30;;;;;;5054662;28;20025;-74
2021/04/04 05:54:14;;;;;;;13.52;6.00;;;2.70;83.40;;;;;;5094071;28;20024;-73
2021/04/04 05:56:46;;;;;;;12.35;6.43;;;2.80;83.60;;;;;;5076936;28;20123;-73
2021/04/04 05:59:17;;;;;;;14.82;6.55;;;2.90;83.40;;;;;;5094772;28;20039;-73
2021/04/04 06:02:02;;;;;;;9.15;5.45;;;3.00;83.00;;;;;;5076564;28;20036;-73
2021/04/04 06:04:55;;;;;;;12.38;6.70;;;3.00;83.00;;;;;;5076358;28;20032;-74
2021/04/04 06:07:26;;;;;;;14.45;6.25;;;3.00;84.30;;;;;;5094515;28;20024;-74
2021/04/04 06:10:43;;;;;;;11.30;6.30;;;3.10;84.00;;;;;;5094424;28;20444;-73
2021/04/04 06:13:17;;;;;;;11.43;6.13;;;3.20;84.20;;;;;;4995804;28;20026;-73
2021/04/04 06:15:58;;;;;;;12.02;6.35;;;3.30;83.30;;;;;;5081923;28;20040;-73
2021/04/04 06:18:53;;;;;;;9.45;6.25;;;3.20;83.80;;;;;;5094313;28;20039;-74
2021/04/04 06:21:27;;;;;;;9.38;5.93;;;3.20;85.10;;;;;;5076081;28;20032;-73
2021/04/04 06:24:23;;;;;;;16.42;6.15;;;3.30;83.50;;;;;;5076134;28;20481;-74
2021/04/04 06:27:14;;;;;;;12.18;5.35;;;3.40;82.70;;;;;;5094088;28;20069;-73
2021/04/04 06:30:02;;;;;;;9.38;5.65;;;3.70;82.00;;;;;;5094301;28;20016;-73
2021/04/04 06:32:59;;;;;;;8.35;5.95;;;3.80;81.20;;;;;;5094196;28;20391;-73
2021/04/04 06:35:31;;;;;;;16.52;6.20;;;3.80;80.90;;;;;;5094079;28;20271;-73
2021/04/04 06:38:31;;;;;;;10.30;5.20;;;3.80;80.50;;;;;;5094077;28;20141;-73
2021/04/04 06:41:07;;;;;;;11.25;6.53;;;3.90;80.40;;;;;;5094065;28;20403;-73
2021/04/04 06:43:59;;;;;;;17.02;5.45;;;4.00;80.30;;;;;;5093937;28;20032;-73
2021/04/04 06:46:43;;;;;;;14.68;6.05;;;4.30;80.10;;;;;;5093878;28;20035;-73
2021/04/04 06:49:27;;;;;;;10.68;5.80;;;4.60;79.20;;;;;;5075769;28;20067;-74
2021/04/04 06:52:13;;;;;;;12.43;5.80;;;4.80;78.20;;;;;;5093638;28;20086;-73
2021/04/04 06:55:06;;;;;;;13.70;5.93;;;4.80;78.00;;;;;;5075768;28;20382;-73
2021/04/04 06:57:47;;;;;;;11.15;6.22;;;5.00;77.90;;;;;;5075679;28;20117;-73
2021/04/04 07:00:14;;;;;;;9.80;5.95;;;5.00;76.70;;;;;;5093307;28;20363;-73
2021/04/04 07:02:57;;;;;;;14.32;5.75;;;5.10;76.60;;;;;;5093571;28;20028;-73
2021/04/04 07:05:32;;;;;;;11.05;4.90;;;4.90;75.60;;;;;;5093441;28;20024;-73
2021/04/04 07:08:34;;;;;;;13.40;5.28;;;5.00;75.30;;;;;;5093431;28;20035;-73
2021/04/04 07:11:11;;;;;;;10.20;5.30;;;5.00;74.50;;;;;;5045012;28;20036;-73
2021/04/04 07:13:46;;;;;;;15.30;5.43;;;5.20;74.10;;;;;;5075382;28;20471;-73
2021/04/04 07:16:32;;;;;;;11.70;5.63;;;5.30;73.50;;;;;;5093321;28;20103;-73
2021/04/04 07:19:04;;;;;;;11.38;6.13;;;5.50;72.60;;;;;;5073865;28;20032;-73
2021/04/04 07:21:33;;;;;;;11.85;4.47;;;5.70;70.90;;;;;;5075079;28;20052;-73
2021/04/04 07:24:24;;;;;;;15.13;5.28;;;5.80;70.60;;;;;;5092873;28;20383;-73
2021/04/04 07:26:53;;;;;;;12.45;5.43;;;6.00;69.30;;;;;;5092941;28;20060;-73
2021/04/04 07:29:45;;;;;;;16.70;4.47;;;6.00;68.60;;;;;;5074739;28;20558;-73
2021/04/04 07:32:13;;;;;;;13.07;5.32;;;5.80;66.60;;;;;;5069270;28;20115;-73
2021/04/04 07:34:59;;;;;;;12.30;5.28;;;5.90;66.80;;;;;;5074698;28;20387;-73
2021/04/04 07:37:59;;;;;;;8.30;4.15;;;5.90;65.20;;;;;;5092731;28;20080;-73
2021/04/04 07:40:28;;;;;;;14.02;4.25;;;6.10;63.90;;;;;;5071464;28;20040;-73
2021/04/04 07:43:05;;;;;;;13.10;5.03;;;6.20;64.10;;;;;;5092830;28;20031;-73
2021/04/04 07:45:55;;;;;;;16.60;5.00;;;6.30;64.20;;;;;;5074622;28;20020;-73
2021/04/04 07:48:46;;;;;;;8.88;4.40;;;6.40;64.90;;;;;;5074466;28;20020;-73
2021/04/04 07:51:30;;;;;;;7.90;4.10;;;6.70;64.40;;;;;;5074562;28;20024;-73
2021/04/04 07:54:04;;;;;;;7.20;3.92;;;6.80;64.10;;;;;;5092401;28;20502;-73
2021/04/04 07:56:38;;;;;;;7.75;4.03;;;6.90;60.20;;;;;;5092613;28;20494;-75
2021/04/04 07:59:29;;;;;;;7.68;4.25;;;7.00;59.90;;;;;;5074062;28;20031;-73
2021/04/04 08:02:03;;;;;;;11.00;3.33;;;6.90;59.00;;;;;;5092479;28;20027;-73
2021/04/04 08:04:41;;;;;;;6.88;3.20;;;6.90;58.90;;;;;;5089863;28;20120;-73
2021/04/04 08:07:12;;;;;;;6.90;2.67;;;6.80;58.00;;;;;;5077396;28;20035;-73
2021/04/04 08:09:47;;;;;;;6.30;3.63;;;7.10;57.40;;;;;;5112679;28;20375;-73
2021/04/04 08:12:44;;;;;;;7.18;2.70;;;7.30;56.80;;;;;;5112269;28;20047;-73
2021/04/04 08:15:21;;;;;;;9.65;2.85;;;7.50;56.90;;;;;;5112572;28;20016;-73
2021/04/04 08:17:47;;;;;;;6.93;3.47;;;7.50;57.40;;;;;;5112569;28;20054;-73
2021/04/04 08:20:23;;;;;;;7.30;3.15;;;7.30;56.70;;;;;;5112607;28;20055;-73
2021/04/04 08:22:58;;;;;;;8.30;3.67;;;7.10;56.50;;;;;;5112247;28;20016;-73
2021/04/04 08:25:46;;;;;;;6.88;3.70;;;7.30;56.70;;;;;;5094235;28;20401;-74
2021/04/04 08:28:21;;;;;;;7.80;3.22;;;7.30;56.10;;;;;;5094010;28;20024;-73
2021/04/04 08:30:53;;;;;;;10.07;4.18;;;7.50;56.20;;;;;;5112713;28;20024;-72
2021/04/04 08:33:34;;;;;;;;;;;7.60;55.60;;;;;;5112820;28;20498;-72
2021/04/04 08:36:03;;;;;;;5.03;3.05;;;7.70;55.20;;;;;;5112393;28;19990;-72
2021/04/04 08:38:35;;;;;;;8.55;3.88;;;7.70;54.60;;;;;;5112350;28;20073;-72
2021/04/04 08:41:02;;;;;;;6.28;3.20;;;7.80;55.10;;;;;;5112393;28;20024;-72
2021/04/04 08:43:28;;;;;;;5.75;3.40;;;7.70;54.40;;;;;;5077463;28;20061;-72
2021/04/04 08:46:20;;;;;;;9.43;3.33;;;8.00;54.50;;;;;;5112135;28;20390;-72
2021/04/04 08:48:47;;;;;;;9.65;3.28;;;8.20;54.20;;;;;;5112160;28;20024;-72
2021/04/04 08:51:17;;;;;;;7.93;3.08;;;8.20;53.60;;;;;;5112389;28;20031;-72
2021/04/04 08:53:46;;;;;;;10.13;3.65;;;8.20;53.80;;;;;;5112120;28;20032;-72
2021/04/04 08:56:14;;;;;;;12.23;3.67;;;8.10;54.20;;;;;;5112117;28;20032;-72
2021/04/04 08:58:44;;;;;;;7.55;3.78;;;8.00;54.90;;;;;;5112066;28;20073;-72
2021/04/04 09:01:15;;;;;;;9.73;3.63;;;8.10;54.70;;;;;;5112138;28;20474;-72
2021/04/04 09:03:47;;;;;;;10.82;3.45;;;8.10;54.00;;;;;;5112095;28;20055;-72
2021/04/04 09:06:13;;;;;;;7.90;3.38;;;8.20;54.10;;;;;;5112016;28;20028;-72
2021/04/04 09:08:42;;;;;;;8.15;3.03;;;8.20;53.80;;;;;;5112354;28;20095;-71
2021/04/04 09:11:12;;;;;;;7.82;4.03;;;8.20;53.20;;;;;;5112065;28;20421;-72
2021/04/04 09:13:39;;;;;;;6.15;3.17;;;8.20;53.30;;;;;;5093794;28;20012;-72
2021/04/04 09:16:13;;;;;;;8.30;2.55;;;8.00;52.20;;;;;;5111988;28;20394;-72
2021/04/04 09:18:45;;;;;;;9.57;2.88;;;7.80;50.90;;;;;;5112073;28;20032;-72
2021/04/04 09:21:11;;;;;;;6.30;2.83;;;7.70;51.70;;;;;;5112153;28;20027;-72
2021/04/04 09:23:38;;;;;;;5.18;2.67;;;7.60;52.40;;;;;;5112028;28;20051;-72
2021/04/04 09:26:08;;;;;;;5.35;2.83;;;7.70;51.60;;;;;;5116033;28;20020;-72
2021/04/04 09:28:39;;;;;;;7.07;3.10;;;7.90;51.30;;;;;;5115730;28;20024;-72
2021/04/04 09:31:16;;;;;;;4.65;2.92;;;8.10;50.30;;;;;;5115756;28;20023;-72
2021/04/04 09:33:43;;;;;;;9.38;3.92;;;8.30;49.70;;;;;;5116237;28;20028;-72
2021/04/04 09:36:09;;;;;;;8.95;2.80;;;8.30;50.30;;;;;;5115798;28;20427;-72
2021/04/04 09:38:40;;;;;;;9.10;3.45;;;8.20;49.90;;;;;;5115845;28;20024;-72
2021/04/04 09:41:10;;;;;;;8.60;3.83;;;8.20;50.80;;;;;;5115697;28;20102;-72
2021/04/04 09:43:59;;;;;;;6.50;2.95;;;8.20;50.90;;;;;;5111542;27;20117;-72
2021/04/04 09:46:24;;;;;;;6.22;3.50;;;8.40;50.40;;;;;;5086807;28;20547;-72
2021/04/04 09:48:50;;;;;;;7.32;2.60;;;8.60;50.10;;;;;;5095059;28;20058;-72
2021/04/04 09:51:16;;;;;;;5.30;2.60;;;8.60;50.00;;;;;;5095499;28;20020;-72
2021/04/04 09:53:49;;;;;;;6.45;3.00;;;8.80;49.50;;;;;;5095127;28;20034;-73
2021/04/04 09:56:17;;;;;;;5.93;3.08;;;8.80;50.20;;;;;;5094999;28;20089;-72
2021/04/04 09:58:46;;;;;;;5.15;3.17;;;8.60;50.30;;;;;;5077090;28;20050;-72
2021/04/04 10:01:19;;;;;;;5.13;3.30;;;8.80;50.40;;;;;;5076927;28;20037;-72
2021/04/04 10:04:06;;;;;;;7.57;3.72;;;8.70;50.00;;;;;;5095112;28;20111;-74
2021/04/04 10:06:36;;;;;;;5.75;2.72;;;8.80;50.00;;;;;;5076700;28;20035;-72
2021/04/04 10:09:05;;;;;;;8.88;3.00;;;8.80;49.70;;;;;;5076826;28;20020;-72
2021/04/04 10:11:33;;;;;;;5.30;2.65;;;8.90;49.80;;;;;;5059885;28;20024;-72
2021/04/04 10:14:09;;;;;;;6.60;2.92;;;9.00;49.40;;;;;;5094867;28;20028;-72
2021/04/04 10:16:36;;;;;;;5.15;3.33;;;8.90;49.20;;;;;;5094732;28;20020;-72
2021/04/04 10:19:03;;;;;;;7.07;3.25;;;8.60;49.80;;;;;;5059534;28;20021;-72
2021/04/04 10:21:29;;;;;;;11.30;3.13;;;8.50;50.40;;;;;;5095186;28;20440;-75
2021/04/04 10:23:55;;;;;;;11.40;3.00;;;8.70;50.20;;;;;;5076079;28;20028;-72
2021/04/04 10:26:22;;;;;;;8.60;2.92;;;8.90;50.10;;;;;;5094564;28;20020;-72
2021/04/04 10:28:59;;;;;;;9.07;2.88;;;9.30;49.20;;;;;;5076145;28;20023;-72
2021/04/04 10:31:25;;;;;;;7.38;3.25;;;9.20;48.70;;;;;;5094429;28;20024;-72
2021/04/04 10:34:03;;;;;;;5.55;2.60;;;9.40;48.70;;;;;;5094282;28;20095;-72
2021/04/04 10:36:29;;;;;;;9.68;3.53;;;9.30;47.80;;;;;;5093736;28;20433;-72
2021/04/04 10:38:56;;;;;;;7.45;2.88;;;9.30;48.60;;;;;;5094021;28;20050;-72
2021/04/04 10:41:33;;;;;;;4.43;2.72;;;9.60;48.20;;;;;;5094155;28;20032;-72
2021/04/04 10:44:00;;;;;;;8.50;3.03;;;10.40;46.70;;;;;;5094084;28;20257;-72
2021/04/04 10:46:31;;;;;;;8.73;2.97;;;11.40;45.50;;;;;;5075683;28;20035;-72
2021/04/04 10:49:02;;;;;;;8.10;3.47;;;12.30;43.10;;;;;;5093769;28;20025;-72
2021/04/04 10:51:29;;;;;;;7.82;3.13;;;13.20;40.60;;;;;;5093963;28;20024;-72
2021/04/04 10:53:57;;;;;;;5.97;2.30;;;13.60;39.20;;;;;;5133010;23;20501;-72
2021/04/04 10:56:24;;;;;;;5.15;2.65;;;13.70;37.40;;;;;;5134722;27;20459;-71
2021/04/04 10:58:51;;;;;;;6.35;3.67;;;13.60;38.00;;;;;;5134576;27;20023;-71
2021/04/04 11:01:17;;;;;;;5.32;3.13;;;13.80;37.20;;;;;;5134622;27;20019;-71
2021/04/04 11:03:44;;;;;;;5.70;3.20;;;13.90;37.50;;;;;;5134224;27;20474;-71
2021/04/04 11:06:11;;;;;;;5.43;2.88;;;14.00;37.70;;;;;;5134659;27;20026;-72
2021/04/04 11:08:40;;;;;;;7.00;3.00;;;14.40;38.00;;;;;;5134505;27;20456;-72
2021/04/04 11:11:06;;;;;;;4.78;2.72;;;15.30;36.80;;;;;;5133073;27;20022;-71
2021/04/04 11:13:34;;;;;;;4.57;2.42;;;15.00;35.70;;;;;;5134322;27;20442;-71
2021/04/04 11:16:06;;;;;;;9.70;2.85;;;15.30;36.40;;;;;;5134268;27;20045;-71
2021/04/04 11:18:35;;;;;;;4.25;2.65;;;15.00;35.70;;;;;;5134578;27;20300;-71
2021/04/04 11:21:04;;;;;;;6.18;2.90;;;14.90;35.50;;;;;;5134243;27;20035;-72
2021/04/04 11:23:31;;;;;;;7.28;3.70;;;15.30;36.20;;;;;;5134056;27;20034;-71
2021/04/04 11:25:57;;;;;;;6.90;2.88;;;15.80;35.50;;;;;;5132677;27;20031;-72
2021/04/04 11:28:25;;;;;;;7.20;2.60;;;15.60;34.50;;;;;;5133912;27;20016;-72
2021/04/04 11:30:52;;;;;;;7.22;2.58;;;16.10;34.70;;;;;;5134036;27;20020;-71
2021/04/04 11:33:18;;;;;;;4.13;2.20;;;15.80;34.10;;;;;;5132702;27;20115;-72
2021/04/04 11:36:06;;;;;;;5.00;2.33;;;16.30;33.70;;;;;;5133901;27;20050;-72
2021/04/04 11:38:52;;;;;;;3.30;2.42;;;16.50;32.00;;;;;;5133895;27;20106;-70
2021/04/04 11:41:27;;;;;;;8.88;2.80;;;15.70;32.90;;;;;;5133825;27;20031;-71
2021/04/04 11:44:40;;;;;;;3.42;2.28;;;16.20;32.20;;;;;;5133913;27;20023;-72
2021/04/04 11:47:15;;;;;;;6.32;2.13;;;16.70;31.20;;;;;;5127979;27;20091;-71
2021/04/04 11:49:47;;;;;;;5.25;2.20;;;16.40;32.10;;;;;;5133589;27;20036;-71
2021/04/04 11:52:15;;;;;;;;;;;16.20;31.80;;;;;;5132848;27;20084;-71
2021/04/04 11:54:41;;;;;;;4.68;2.10;;;16.30;32.50;;;;;;5133539;27;20378;-71
2021/04/04 11:57:20;;;;;;;7.10;2.67;;;15.90;31.70;;;;;;5133551;27;20019;-72
2021/04/04 11:59:54;;;;;;;6.47;2.75;;;16.10;32.80;;;;;;5133534;27;20027;-72
2021/04/04 12:02:23;;;;;;;5.45;2.40;;;16.70;31.40;;;;;;5132265;27;20053;-72
2021/04/04 12:05:00;;;;;;;3.03;2.28;;;17.10;31.30;;;;;;5133509;27;20263;-71
2021/04/04 12:07:26;;;;;;;5.40;2.45;;;17.40;30.50;;;;;;5133220;27;20023;-72
2021/04/04 12:09:53;;;;;;;4.88;2.38;;;16.90;30.70;;;;;;5132025;27;20535;-72
2021/04/04 12:12:19;;;;;;;4.75;2.40;;;16.90;31.60;;;;;;5133247;27;20246;-72
2021/04/04 12:14:49;;;;;;;4.93;2.75;;;17.10;31.50;;;;;;5131840;27;20023;-72
2021/04/04 12:17:16;;;;;;;3.78;2.30;;;17.10;30.60;;;;;;5133244;27;20470;-72
2021/04/04 12:19:43;;;;;;;4.28;2.70;;;16.20;31.40;;;;;;5133745;27;20373;-72
2021/04/04 12:22:10;;;;;;;4.85;2.90;;;15.40;33.30;;;;;;5131770;27;20023;-71
2021/04/04 12:24:51;;;;;;;6.03;2.60;;;14.60;34.90;;;;;;5132988;27;20072;-72
2021/04/04 12:27:21;;;;;;;7.00;2.60;;;14.40;35.40;;;;;;5132660;27;20020;-72
2021/04/04 12:29:48;;;;;;;5.22;2.60;;;14.40;35.80;;;;;;5131704;27;20470;-71
2021/04/04 12:32:24;;;;;;;6.60;2.60;;;14.70;34.70;;;;;;5131732;27;20413;-71
2021/04/04 12:34:53;;;;;;;5.57;2.90;;;14.30;34.80;;;;;;5114601;28;20027;-72
2021/04/04 12:37:21;;;;;;;6.15;2.67;;;14.50;35.10;;;;;;5131551;27;20026;-72
2021/04/04 12:39:47;;;;;;;4.70;2.67;;;14.30;34.80;;;;;;5131633;28;20031;-72
2021/04/04 12:42:19;;;;;;;5.25;2.63;;;14.30;34.90;;;;;;5131658;28;20034;-72
2021/04/04 12:44:47;;;;;;;5.35;2.63;;;13.50;35.20;;;;;;5132965;27;20043;-72
2021/04/04 12:47:24;;;;;;;3.65;2.55;;;13.00;36.60;;;;;;5132807;27;20080;-72
2021/04/04 12:50:16;;;;;;;3.33;2.08;;;12.50;37.10;;;;;;5131515;28;20047;-72
2021/04/04 12:52:43;;;;;;;;;;;12.80;37.10;;;;;;5133118;27;20023;-72
2021/04/04 12:55:13;;;;;;;5.30;2.45;;;13.40;36.10;;;;;;5132885;27;19997;-72
2021/04/04 12:57:40;;;;;;;4.05;2.20;;;13.90;35.40;;;;;;5132750;27;20041;-72
2021/04/04 13:00:16;;;;;;;5.35;2.45;;;13.60;34.90;;;;;;5137376;27;20031;-74
2021/04/04 13:03:09;;;;;;;5.68;2.58;;;13.40;35.20;;;;;;5136844;27;20631;-73
2021/04/04 13:06:01;;;;;;;3.78;2.50;;;13.10;36.80;;;;;;5136723;27;20041;-72
2021/04/04 13:08:32;;;;;;;9.77;2.30;;;13.20;36.40;;;;;;5135592;27;20095;-72
2021/04/04 13:11:00;;;;;;;4.25;3.28;;;13.90;35.40;;;;;;5136737;27;20363;-72
2021/04/04 13:13:28;;;;;;;7.60;2.50;;;13.90;33.60;;;;;;5136600;27;20012;-72
2021/04/04 13:16:02;;;;;;;6.97;2.53;;;14.00;34.30;;;;;;5136757;27;20023;-72